createdAt,value
2023-05-19T00:02:09.448Z,18.14
2023-05-19T00:04:37.136Z,18.20
2023-05-19T00:07:05.716Z,18.15
2023-05-19T00:09:32.829Z,18.17
2023-05-19T00:11:59.900Z,18.10
2023-05-19T00:14:26.979Z,18.10
2023-05-19T00:16:56.062Z,18.07
2023-05-19T00:19:24.603Z,18.06
2023-05-19T00:21:51.781Z,18.10
2023-05-19T00:24:18.629Z,18.08
2023-05-19T00:26:45.574Z,18.12
2023-05-19T00:29:13.268Z,18.06
2023-05-19T00:31:40.289Z,18.03
2023-05-19T00:34:09.265Z,17.99
2023-05-19T00:36:36.088Z,17.86
2023-05-19T00:39:03.691Z,17.74
2023-05-19T00:41:30.515Z,17.73
2023-05-19T00:43:57.758Z,17.71
2023-05-19T00:46:25.016Z,17.62
2023-05-19T00:48:51.858Z,17.70
2023-05-19T00:51:19.080Z,17.62
2023-05-19T00:53:49.325Z,17.67
2023-05-19T00:56:17.086Z,17.62
2023-05-19T00:58:44.541Z,17.69
2023-05-19T01:01:17.317Z,17.73
2023-05-19T01:03:45.212Z,17.77
2023-05-19T01:06:12.371Z,17.79
2023-05-19T01:08:39.556Z,17.91
2023-05-19T01:11:07.932Z,17.92
2023-05-19T01:13:36.378Z,17.88
2023-05-19T01:16:56.930Z,17.93
2023-05-19T01:19:46.756Z,17.96
2023-05-19T01:22:32.732Z,17.90
2023-05-19T01:25:02.938Z,17.91
2023-05-19T01:28:01.330Z,17.81
2023-05-19T01:30:39.145Z,17.80
2023-05-19T01:33:08.640Z,17.68
2023-05-19T01:35:37.442Z,17.70
2023-05-19T01:38:05.512Z,17.68
2023-05-19T01:40:34.396Z,17.68
2023-05-19T01:43:02.239Z,17.46
2023-05-19T01:45:31.110Z,17.45
2023-05-19T01:48:00.480Z,17.46
2023-05-19T01:50:28.116Z,17.42
2023-05-19T01:52:55.284Z,17.40
2023-05-19T01:55:25.235Z,17.44
2023-05-19T01:58:17.683Z,17.42
2023-05-19T02:00:51.553Z,17.42
2023-05-19T02:03:33.422Z,17.34
2023-05-19T02:06:21.887Z,17.41
2023-05-19T02:09:02.399Z,17.44
2023-05-19T02:11:54.851Z,17.49
2023-05-19T02:14:35.745Z,17.48
2023-05-19T02:17:05.062Z,17.53
2023-05-19T02:19:34.607Z,17.60
2023-05-19T02:22:01.456Z,17.61
2023-05-19T02:24:28.353Z,17.65
2023-05-19T02:26:55.366Z,17.72
2023-05-19T02:29:22.395Z,17.74
2023-05-19T02:31:50.579Z,17.82
2023-05-19T02:34:19.087Z,17.87
2023-05-19T02:36:45.937Z,17.81
2023-05-19T02:39:13.031Z,17.87
2023-05-19T02:41:39.882Z,17.91
2023-05-19T02:44:07.692Z,17.91
2023-05-19T02:46:36.316Z,17.91
2023-05-19T02:49:03.953Z,17.96
2023-05-19T02:51:30.782Z,17.90
2023-05-19T02:53:57.695Z,17.89
2023-05-19T02:56:24.605Z,17.91
2023-05-19T02:58:52.719Z,17.87
2023-05-19T03:01:22.180Z,17.89
2023-05-19T03:03:49.339Z,17.90
2023-05-19T03:06:18.016Z,17.84
2023-05-19T03:08:45.146Z,17.85
2023-05-19T03:11:12.189Z,17.79
2023-05-19T03:13:39.026Z,17.67
2023-05-19T03:16:08.265Z,17.66
2023-05-19T03:18:36.137Z,17.66
2023-05-19T03:21:03.186Z,17.70
2023-05-19T03:23:30.442Z,17.70
2023-05-19T03:25:57.935Z,17.68
2023-05-19T03:28:24.717Z,17.68
2023-05-19T03:30:51.660Z,17.65
2023-05-19T03:33:22.395Z,17.66
2023-05-19T03:35:49.764Z,17.59
2023-05-19T03:38:17.050Z,17.58
2023-05-19T03:40:51.259Z,17.56
2023-05-19T03:43:18.094Z,17.55
2023-05-19T03:45:51.077Z,17.51
2023-05-19T03:48:36.559Z,17.48
2023-05-19T03:51:38.690Z,17.45
2023-05-19T03:54:31.839Z,17.39
2023-05-19T03:56:58.805Z,17.36
2023-05-19T03:59:25.972Z,17.30
2023-05-19T04:01:53.020Z,17.26
2023-05-19T04:04:20.071Z,17.26
2023-05-19T04:06:46.976Z,17.22
2023-05-19T04:09:15.934Z,17.27
2023-05-19T04:11:43.305Z,17.19
2023-05-19T04:14:10.225Z,17.18
2023-05-19T04:16:37.453Z,17.15
2023-05-19T04:19:04.275Z,17.07
2023-05-19T04:21:31.164Z,17.09
2023-05-19T04:24:00.062Z,17.06
2023-05-19T04:26:30.887Z,16.94
2023-05-19T04:28:57.771Z,16.91
2023-05-19T04:31:24.797Z,16.88
2023-05-19T04:33:53.536Z,16.88
2023-05-19T04:36:21.759Z,16.84
2023-05-19T04:38:54.904Z,16.82
2023-05-19T04:41:24.504Z,16.79
2023-05-19T04:43:51.339Z,16.79
2023-05-19T04:46:24.352Z,16.90
2023-05-19T04:48:55.391Z,16.88
2023-05-19T04:51:22.233Z,16.95
2023-05-19T04:53:49.153Z,17.01
2023-05-19T04:56:16.059Z,17.07
2023-05-19T04:58:44.929Z,17.13
2023-05-19T05:01:13.941Z,17.08
2023-05-19T05:03:42.147Z,17.01
2023-05-19T05:06:11.713Z,16.97
2023-05-19T05:08:40.481Z,16.89
2023-05-19T05:11:07.781Z,16.97
2023-05-19T05:13:34.929Z,16.93
2023-05-19T05:16:02.124Z,16.90
2023-05-19T05:18:29.333Z,16.89
2023-05-19T05:20:56.454Z,16.84
2023-05-19T05:23:24.921Z,16.92
2023-05-19T05:25:52.010Z,16.84
2023-05-19T05:28:19.194Z,16.85
2023-05-19T05:30:47.566Z,16.92
2023-05-19T05:33:15.427Z,17.01
2023-05-19T05:35:42.347Z,17.08
2023-05-19T05:38:11.650Z,17.10
2023-05-19T05:40:38.927Z,17.14
2023-05-19T05:43:06.254Z,17.13
2023-05-19T05:45:37.673Z,17.19
2023-05-19T05:48:05.771Z,17.23
2023-05-19T05:50:33.898Z,17.22
2023-05-19T05:53:03.810Z,17.24
2023-05-19T05:55:31.074Z,17.08
2023-05-19T05:58:02.102Z,17.02
2023-05-19T06:00:30.012Z,16.97
2023-05-19T06:02:57.380Z,16.86
2023-05-19T06:05:26.158Z,16.84
2023-05-19T06:07:54.304Z,16.76
2023-05-19T06:10:25.048Z,16.70
2023-05-19T06:12:53.464Z,16.75
2023-05-19T06:15:22.373Z,16.76
2023-05-19T06:17:54.863Z,16.76
2023-05-19T06:20:33.519Z,16.87
2023-05-19T06:23:01.073Z,16.80
2023-05-19T06:25:29.230Z,16.92
2023-05-19T06:27:57.337Z,16.93
2023-05-19T06:30:24.494Z,16.94
2023-05-19T06:33:11.949Z,16.92
2023-05-19T06:35:38.860Z,17.00
2023-05-19T06:38:05.763Z,17.07
2023-05-19T06:40:33.015Z,17.12
2023-05-19T06:42:59.945Z,17.24
2023-05-19T06:45:52.899Z,17.36
2023-05-19T06:48:19.794Z,17.47
2023-05-19T06:50:47.649Z,17.61
2023-05-19T06:53:14.515Z,17.80
2023-05-19T06:55:54.423Z,17.80
2023-05-19T06:58:27.881Z,17.97
2023-05-19T07:00:56.905Z,18.16
2023-05-19T07:03:27.692Z,18.06
2023-05-19T07:05:55.453Z,18.10
2023-05-19T07:08:22.646Z,18.21
2023-05-19T07:10:49.565Z,18.20
2023-05-19T07:13:17.238Z,18.19
2023-05-19T07:15:44.151Z,18.23
2023-05-19T07:18:11.063Z,18.38
2023-05-19T07:20:37.975Z,18.32
2023-05-19T07:23:05.498Z,18.50
2023-05-19T07:25:33.352Z,18.78
2023-05-19T07:28:00.331Z,18.96
2023-05-19T07:30:28.704Z,19.11
2023-05-19T07:32:56.114Z,19.12
2023-05-19T07:35:23.104Z,18.97
2023-05-19T07:37:50.181Z,18.91
2023-05-19T07:40:17.247Z,18.83
2023-05-19T07:42:44.649Z,18.74
2023-05-19T07:45:11.825Z,18.96
2023-05-19T07:47:38.599Z,19.11
2023-05-19T07:50:06.147Z,19.28
2023-05-19T07:52:33.043Z,19.14
2023-05-19T07:54:59.902Z,19.39
2023-05-19T07:57:26.834Z,19.54
2023-05-19T07:59:53.660Z,19.67
2023-05-19T08:02:20.593Z,19.66
2023-05-19T08:04:49.594Z,19.97
2023-05-19T08:07:16.431Z,20.19
2023-05-19T08:09:43.180Z,20.15
2023-05-19T08:12:10.019Z,20.39
2023-05-19T08:14:37.494Z,20.52
2023-05-19T08:17:04.284Z,20.66
2023-05-19T08:19:31.182Z,20.63
2023-05-19T08:22:01.160Z,20.54
2023-05-19T08:24:32.739Z,20.45
2023-05-19T08:26:59.717Z,20.36
2023-05-19T08:29:26.531Z,20.36
2023-05-19T08:31:53.524Z,20.44
2023-05-19T08:34:20.869Z,20.24
2023-05-19T08:36:47.894Z,20.06
2023-05-19T08:39:16.322Z,19.90
2023-05-19T08:41:43.356Z,19.86
2023-05-19T08:44:10.198Z,19.92
2023-05-19T08:46:37.280Z,20.07
2023-05-19T08:49:12.176Z,20.24
2023-05-19T08:52:01.844Z,20.06
2023-05-19T08:54:40.074Z,20.01
2023-05-19T08:57:08.097Z,20.04
2023-05-19T08:59:35.140Z,20.19
2023-05-19T09:02:03.732Z,20.41
2023-05-19T09:04:31.153Z,20.22
2023-05-19T09:06:58.897Z,20.01
2023-05-19T09:09:25.842Z,20.12
2023-05-19T09:11:53.020Z,20.06
2023-05-19T09:14:19.764Z,20.34
2023-05-19T09:16:49.919Z,20.46
2023-05-19T09:19:17.161Z,20.45
2023-05-19T09:21:45.907Z,20.28
2023-05-19T09:24:12.851Z,20.25
2023-05-19T09:26:42.086Z,20.24
2023-05-19T09:29:18.681Z,20.05
2023-05-19T09:31:52.076Z,20.12
2023-05-19T09:34:19.633Z,20.18
2023-05-19T09:36:49.738Z,20.01
2023-05-19T09:39:17.525Z,20.04
2023-05-19T09:41:45.296Z,20.19
2023-05-19T09:44:21.195Z,20.09
2023-05-19T09:46:52.919Z,20.01
2023-05-19T09:49:21.979Z,20.27
2023-05-19T09:51:56.657Z,20.29
2023-05-19T09:54:24.766Z,20.25
2023-05-19T09:57:02.415Z,20.46
2023-05-19T09:59:33.025Z,20.29
2023-05-19T10:02:02.316Z,20.16
2023-05-19T10:05:01.460Z,20.32
2023-05-19T10:07:28.781Z,20.32
2023-05-19T10:09:58.518Z,20.29
2023-05-19T10:12:26.637Z,20.31
2023-05-19T10:15:13.664Z,20.54
2023-05-19T10:17:42.326Z,20.39
2023-05-19T10:20:12.777Z,20.61
2023-05-19T10:22:44.032Z,20.63
2023-05-19T10:25:13.195Z,20.62
2023-05-19T10:27:46.679Z,20.98
2023-05-19T10:30:21.822Z,21.15
2023-05-19T10:32:49.488Z,21.18
2023-05-19T10:35:37.961Z,21.28
2023-05-19T10:38:23.787Z,21.44
2023-05-19T10:41:01.125Z,21.46
2023-05-19T10:43:45.064Z,21.50
2023-05-19T10:46:12.071Z,21.48
2023-05-19T10:48:44.074Z,21.56
2023-05-19T10:51:12.335Z,21.51
2023-05-19T10:53:50.175Z,21.23
2023-05-19T10:56:32.851Z,21.51
2023-05-19T10:59:00.153Z,21.32
2023-05-19T11:01:32.366Z,21.32
2023-05-19T11:04:06.146Z,21.16
2023-05-19T11:06:35.680Z,20.84
2023-05-19T11:09:22.579Z,20.81
2023-05-19T11:11:55.429Z,20.89
2023-05-19T11:14:26.190Z,20.94
2023-05-19T11:16:57.513Z,20.67
2023-05-19T11:19:27.810Z,20.61
2023-05-19T11:21:55.529Z,20.51
2023-05-19T11:24:40.673Z,20.55
2023-05-19T11:27:32.894Z,20.65
2023-05-19T11:30:01.914Z,20.65
2023-05-19T11:32:33.676Z,20.77
2023-05-19T11:35:00.995Z,20.90
2023-05-19T11:37:32.157Z,20.87
2023-05-19T11:40:02.009Z,20.91
2023-05-19T11:42:28.940Z,21.15
2023-05-19T11:44:56.350Z,21.09
2023-05-19T11:47:23.401Z,21.03
2023-05-19T11:49:57.905Z,20.90
2023-05-19T11:52:25.658Z,20.95
2023-05-19T11:54:52.574Z,20.84
2023-05-19T11:57:19.678Z,20.77
2023-05-19T11:59:48.358Z,20.87
2023-05-19T12:02:27.786Z,20.63
2023-05-19T12:04:54.955Z,20.48
2023-05-19T12:07:26.110Z,20.50
2023-05-19T12:09:55.441Z,20.59
2023-05-19T12:12:23.225Z,20.69
2023-05-19T12:14:51.439Z,20.72
2023-05-19T12:17:20.484Z,20.71
2023-05-19T12:19:48.775Z,20.82
2023-05-19T12:22:19.300Z,20.89
2023-05-19T12:24:47.288Z,20.90
2023-05-19T12:27:19.662Z,20.98
2023-05-19T12:30:00.261Z,20.99
2023-05-19T12:32:28.778Z,21.04
2023-05-19T12:34:56.585Z,21.09
2023-05-19T12:37:27.699Z,21.04
2023-05-19T12:39:56.270Z,20.99
2023-05-19T12:42:23.804Z,21.08
2023-05-19T12:44:52.580Z,21.09
2023-05-19T12:47:20.501Z,21.23
2023-05-19T12:49:59.386Z,21.25
2023-05-19T12:52:29.334Z,21.35
2023-05-19T12:54:59.989Z,21.57
2023-05-19T12:57:28.276Z,21.65
2023-05-19T13:00:00.836Z,21.71
2023-05-19T13:02:27.917Z,21.85
2023-05-19T13:04:54.797Z,21.99
2023-05-19T13:07:22.111Z,22.11
2023-05-19T13:09:49.964Z,22.02
2023-05-19T13:12:16.843Z,22.32
2023-05-19T13:14:44.721Z,22.52
2023-05-19T13:17:11.801Z,22.61
2023-05-19T13:19:38.697Z,22.63
2023-05-19T13:22:06.782Z,22.78
2023-05-19T13:24:33.556Z,22.92
2023-05-19T13:27:00.375Z,22.93
2023-05-19T13:29:28.332Z,22.90
2023-05-19T13:31:55.123Z,22.77
2023-05-19T13:34:21.918Z,22.76
2023-05-19T13:36:49.038Z,22.72
2023-05-19T13:39:16.345Z,22.60
2023-05-19T13:41:43.144Z,22.59
2023-05-19T13:44:10.034Z,22.53
2023-05-19T13:46:44.784Z,22.56
2023-05-19T13:49:12.788Z,22.48
2023-05-19T13:51:42.667Z,22.42
2023-05-19T13:54:10.171Z,22.42
2023-05-19T13:56:37.234Z,22.49
2023-05-19T13:59:04.232Z,22.47
2023-05-19T14:01:31.340Z,22.50
2023-05-19T14:03:58.435Z,22.31
2023-05-19T14:06:25.525Z,22.23
2023-05-19T14:08:52.276Z,21.93
2023-05-19T14:11:20.168Z,21.95
2023-05-19T14:13:50.582Z,22.00
2023-05-19T14:16:20.466Z,22.04
2023-05-19T14:18:47.479Z,22.07
2023-05-19T14:21:15.991Z,22.17
2023-05-19T14:23:42.853Z,22.30
2023-05-19T14:26:09.710Z,22.42
2023-05-19T14:28:36.585Z,22.53
2023-05-19T14:31:03.425Z,22.57
2023-05-19T14:33:34.882Z,22.60
2023-05-19T14:36:02.390Z,22.57
2023-05-19T14:38:29.685Z,22.55
2023-05-19T14:40:57.140Z,22.51
2023-05-19T14:43:24.258Z,22.54
2023-05-19T14:45:51.163Z,22.49
2023-05-19T14:48:18.437Z,22.51
2023-05-19T14:50:48.357Z,22.43
2023-05-19T14:53:15.512Z,22.39
2023-05-19T14:55:43.005Z,22.35
2023-05-19T14:58:23.677Z,22.37
2023-05-19T15:00:54.138Z,22.33
2023-05-19T15:03:23.258Z,22.37
2023-05-19T15:05:50.145Z,22.35
2023-05-19T15:08:17.144Z,22.33
2023-05-19T15:10:48.041Z,22.22
2023-05-19T15:13:14.915Z,22.22
2023-05-19T15:15:41.710Z,22.19
2023-05-19T15:18:08.502Z,22.10
2023-05-19T15:20:35.607Z,22.14
2023-05-19T15:23:02.571Z,22.08
2023-05-19T15:25:30.114Z,22.05
2023-05-19T15:27:57.009Z,22.06
2023-05-19T15:30:23.784Z,22.02
2023-05-19T15:32:50.726Z,22.05
2023-05-19T15:35:17.452Z,22.03
2023-05-19T15:37:44.264Z,22.01
2023-05-19T15:40:11.650Z,22.02
2023-05-19T15:42:38.475Z,22.01
2023-05-19T15:45:07.127Z,21.97
2023-05-19T15:47:33.946Z,21.77
2023-05-19T15:50:00.742Z,21.78
2023-05-19T15:52:27.753Z,21.74
2023-05-19T15:54:55.323Z,21.71
2023-05-19T15:57:22.093Z,21.67
2023-05-19T15:59:48.898Z,21.62
2023-05-19T16:02:15.962Z,21.60
2023-05-19T16:04:42.797Z,21.46
2023-05-19T16:07:09.514Z,21.21
2023-05-19T16:09:36.289Z,21.15
2023-05-19T16:12:03.129Z,20.97
2023-05-19T16:14:33.274Z,20.79
2023-05-19T16:17:02.746Z,20.53
2023-05-19T16:19:29.730Z,20.39
2023-05-19T16:21:56.600Z,20.37
2023-05-19T16:24:23.399Z,20.30
2023-05-19T16:26:53.156Z,20.22
2023-05-19T16:29:20.056Z,20.17
2023-05-19T16:31:46.926Z,20.16
2023-05-19T16:34:13.865Z,20.15
2023-05-19T16:36:40.700Z,20.15
2023-05-19T16:39:07.547Z,20.14
2023-05-19T16:41:34.346Z,20.13
2023-05-19T16:44:02.373Z,20.15
2023-05-19T16:46:29.968Z,19.98
2023-05-19T16:48:58.159Z,20.12
2023-05-19T16:51:24.965Z,20.15
2023-05-19T16:53:51.805Z,20.18
2023-05-19T16:56:18.649Z,20.21
2023-05-19T16:58:45.577Z,20.21
2023-05-19T17:01:12.538Z,20.21
2023-05-19T17:03:39.451Z,20.21
2023-05-19T17:06:06.560Z,20.13
2023-05-19T17:08:33.356Z,20.06
2023-05-19T17:11:00.185Z,20.07
2023-05-19T17:13:28.782Z,20.13
2023-05-19T17:15:55.739Z,20.15
2023-05-19T17:18:22.554Z,20.15
2023-05-19T17:20:49.336Z,20.15
2023-05-19T17:23:16.196Z,20.05
2023-05-19T17:25:43.050Z,20.06
2023-05-19T17:28:09.946Z,20.07
2023-05-19T17:30:39.696Z,20.08
2023-05-19T17:33:06.647Z,20.05
2023-05-19T17:35:33.914Z,20.06
2023-05-19T17:38:00.814Z,20.00
2023-05-19T17:40:28.427Z,20.04
2023-05-19T17:42:55.227Z,19.98
2023-05-19T17:45:22.128Z,19.98
2023-05-19T17:47:48.935Z,20.00
2023-05-19T17:50:15.841Z,19.95
2023-05-19T17:52:43.182Z,19.91
2023-05-19T17:55:11.629Z,19.92
2023-05-19T17:57:43.745Z,19.94
2023-05-19T18:00:11.378Z,19.92
2023-05-19T18:02:38.764Z,19.97
2023-05-19T18:05:06.147Z,19.95
2023-05-19T18:07:33.082Z,19.90
2023-05-19T18:10:01.480Z,19.80
2023-05-19T18:12:28.310Z,19.80
2023-05-19T18:14:55.130Z,19.76
2023-05-19T18:17:21.997Z,19.82
2023-05-19T18:19:49.456Z,19.83
2023-05-19T18:22:17.588Z,19.84
2023-05-19T18:24:44.410Z,19.80
2023-05-19T18:27:11.213Z,19.63
2023-05-19T18:29:38.247Z,19.67
2023-05-19T18:32:05.451Z,19.55
2023-05-19T18:34:32.279Z,19.54
2023-05-19T18:36:59.048Z,19.46
2023-05-19T18:39:27.277Z,19.32
2023-05-19T18:41:56.066Z,19.33
2023-05-19T18:44:22.956Z,19.38
2023-05-19T18:46:49.846Z,19.21
2023-05-19T18:49:17.267Z,19.09
2023-05-19T18:51:44.143Z,19.03
2023-05-19T18:54:12.443Z,18.88
2023-05-19T18:56:43.460Z,18.83
2023-05-19T18:59:10.302Z,18.62
2023-05-19T19:01:39.657Z,18.63
2023-05-19T19:04:06.619Z,18.56
2023-05-19T19:06:33.508Z,18.59
2023-05-19T19:09:00.270Z,18.50
2023-05-19T19:11:27.731Z,18.38
2023-05-19T19:13:56.423Z,18.38
2023-05-19T19:16:24.739Z,18.27
2023-05-19T19:18:54.185Z,18.23
2023-05-19T19:21:24.094Z,18.18
2023-05-19T19:23:53.333Z,18.26
2023-05-19T19:26:20.869Z,18.24
2023-05-19T19:28:47.584Z,18.26
2023-05-19T19:31:14.381Z,18.20
2023-05-19T19:33:43.420Z,18.04
2023-05-19T19:36:11.379Z,18.12
2023-05-19T19:38:38.410Z,18.21
2023-05-19T19:41:05.341Z,18.32
2023-05-19T19:43:32.388Z,18.37
2023-05-19T19:46:04.428Z,18.10
2023-05-19T19:48:31.347Z,18.26
2023-05-19T19:50:58.242Z,18.11
2023-05-19T19:53:25.141Z,18.09
2023-05-19T19:55:59.525Z,18.03
2023-05-19T19:58:29.785Z,17.99
2023-05-19T20:00:58.451Z,17.90
2023-05-19T20:03:25.612Z,17.85
2023-05-19T20:05:54.951Z,17.99
2023-05-19T20:08:22.209Z,18.10
2023-05-19T20:10:49.500Z,18.18
2023-05-19T20:13:16.779Z,18.26
2023-05-19T20:15:44.296Z,18.26
2023-05-19T20:18:11.705Z,18.13
2023-05-19T20:20:39.708Z,18.10
2023-05-19T20:23:07.823Z,17.73
2023-05-19T20:25:50.150Z,17.60
2023-05-19T20:28:25.995Z,17.54
2023-05-19T20:30:52.818Z,17.51
2023-05-19T20:33:19.627Z,17.54
2023-05-19T20:35:46.504Z,17.61
2023-05-19T20:38:13.335Z,17.65
2023-05-19T20:40:40.098Z,17.75
2023-05-19T20:43:06.937Z,17.81
2023-05-19T20:45:33.930Z,17.82
2023-05-19T20:48:02.738Z,17.80
2023-05-19T20:50:29.841Z,17.75
2023-05-19T20:52:56.665Z,17.66
2023-05-19T20:55:23.499Z,17.59
2023-05-19T20:57:50.409Z,17.66
2023-05-19T21:00:17.548Z,17.66
2023-05-19T21:02:44.634Z,17.53
2023-05-19T21:05:11.682Z,17.56
2023-05-19T21:07:38.654Z,17.64
2023-05-19T21:10:06.353Z,17.54
2023-05-19T21:12:34.390Z,17.46
2023-05-19T21:15:02.174Z,17.42
2023-05-19T21:17:29.522Z,17.48
2023-05-19T21:19:59.517Z,17.53
2023-05-19T21:22:26.780Z,17.59
2023-05-19T21:24:57.161Z,17.58
2023-05-19T21:27:24.081Z,17.55
2023-05-19T21:29:54.284Z,17.61
2023-05-19T21:32:21.763Z,17.67
2023-05-19T21:34:48.742Z,17.72
2023-05-19T21:37:17.290Z,17.69
2023-05-19T21:39:44.796Z,17.70
2023-05-19T21:42:11.567Z,17.76
2023-05-19T21:44:38.366Z,17.78
2023-05-19T21:47:05.223Z,17.80
2023-05-19T21:49:32.034Z,17.78
2023-05-19T21:51:58.916Z,17.78
2023-05-19T21:54:25.853Z,17.77
2023-05-19T21:56:52.667Z,17.79
2023-05-19T21:59:23.161Z,17.69
2023-05-19T22:01:50.435Z,17.58
2023-05-19T22:04:18.682Z,17.53
2023-05-19T22:06:54.015Z,17.51
2023-05-19T22:09:21.762Z,17.32
2023-05-19T22:11:48.532Z,17.21
2023-05-19T22:14:16.518Z,17.17
2023-05-19T22:16:43.565Z,17.16
2023-05-19T22:19:11.802Z,17.18
2023-05-19T22:21:38.637Z,17.17
2023-05-19T22:24:05.521Z,17.09
2023-05-19T22:26:32.358Z,17.15
2023-05-19T22:28:59.159Z,17.08
2023-05-19T22:31:25.950Z,16.97
2023-05-19T22:33:52.762Z,16.89
2023-05-19T22:36:22.018Z,16.79
2023-05-19T22:38:51.240Z,16.76
2023-05-19T22:41:17.982Z,16.68
2023-05-19T22:43:47.800Z,16.72
2023-05-19T22:46:14.694Z,16.72
2023-05-19T22:48:41.540Z,16.69
2023-05-19T22:51:08.495Z,16.76
2023-05-19T22:53:35.273Z,16.67
2023-05-19T22:56:02.097Z,16.71
2023-05-19T22:58:28.891Z,16.65
2023-05-19T23:00:56.186Z,16.56
2023-05-19T23:03:23.233Z,16.62
2023-05-19T23:05:50.017Z,16.69
2023-05-19T23:08:16.809Z,16.74
2023-05-19T23:10:44.143Z,16.80
2023-05-19T23:13:11.966Z,16.71
2023-05-19T23:15:38.776Z,16.74
2023-05-19T23:18:07.446Z,16.65
2023-05-19T23:20:35.060Z,16.67
2023-05-19T23:23:01.892Z,16.59
2023-05-19T23:25:28.837Z,16.72
2023-05-19T23:27:56.009Z,16.68
2023-05-19T23:30:22.790Z,16.66
2023-05-19T23:32:49.701Z,16.55
2023-05-19T23:35:17.606Z,16.55
2023-05-19T23:37:44.630Z,16.62
2023-05-19T23:40:11.999Z,16.49
2023-05-19T23:42:38.931Z,16.30
2023-05-19T23:45:09.037Z,16.34
2023-05-19T23:47:36.006Z,16.16
2023-05-19T23:50:03.015Z,16.15
2023-05-19T23:52:29.921Z,16.07
2023-05-19T23:54:56.793Z,16.04
2023-05-19T23:57:23.568Z,15.89
2023-05-19T23:59:50.404Z,16.02
